Aviation Digital Data Service (ADDS)

Output produced by METARs form (1540 UTC 26 April 2015)
found at http://www.aviationweather.gov/adds/metars/
 
KGED 261454Z AUTO VRB05KT 10SM CLR 13/05 A2969 RMK AO2 SLP054 T01280050 53006